Albion, Indiana
Current Conditions -  °F | °C
As of 1:55 AM on Saturday 01 Nov 2014 (Local Time) from KGWB Reporting Station
Light Snow Light Snow  
Wind Chill: 22°   Ceiling: 2500
Heat Index: 32°   Visibility: 4mi
Dew Point: 27°   Wind: 15mph
Humidity: 80%   Direction: 350°N
Pressure: 30.17"   Gusts: 23mph
Location:  41.4°N, 85.42°W
Report Text: KGWB 010555Z AUTO 35013G20KT 4SM -SN SCT010 BKN025 OVC031 00/M03 A3017 RMK AO2
Loading
Personal Weather Stations






























Interactive Weather Map
Tropical Storm Tracking
New forecast layout! Learn more

10-Day Weather Forecast

Advertisements
Track Severe Weather on mobile